createdAt,value
2023-04-12T00:02:24.839Z,3.85
2023-04-12T00:04:57.920Z,3.85
2023-04-12T00:07:26.092Z,3.25
2023-04-12T00:09:54.098Z,3.30
2023-04-12T00:12:21.821Z,3.08
2023-04-12T00:14:49.692Z,3.80
2023-04-12T00:17:19.098Z,3.97
2023-04-12T00:19:50.025Z,4.45
2023-04-12T00:22:19.254Z,4.55
2023-04-12T00:24:47.441Z,4.65
2023-04-12T00:27:15.303Z,5.00
2023-04-12T00:29:42.971Z,3.22
2023-04-12T00:32:10.677Z,2.55
2023-04-12T00:34:38.440Z,3.28
2023-04-12T00:37:06.323Z,3.20
2023-04-12T00:39:36.108Z,3.00
2023-04-12T00:42:05.188Z,3.00
2023-04-12T00:44:33.870Z,2.70
2023-04-12T00:47:02.743Z,2.55
2023-04-12T00:49:31.145Z,2.33
2023-04-12T00:52:03.345Z,2.05
2023-04-12T00:54:32.182Z,2.50
2023-04-12T00:57:02.198Z,2.15
2023-04-12T00:59:30.291Z,2.35
2023-04-12T01:01:59.401Z,2.65
2023-04-12T01:04:27.818Z,2.60
2023-04-12T01:07:10.204Z,2.83
2023-04-12T01:09:48.416Z,2.40
2023-04-12T01:12:26.823Z,2.38
2023-04-12T01:15:03.536Z,3.10
2023-04-12T01:17:37.948Z,3.95
2023-04-12T01:20:13.699Z,5.00
2023-04-12T01:23:00.655Z,4.38
2023-04-12T01:25:42.118Z,5.20
2023-04-12T01:28:15.683Z,4.15
2023-04-12T01:30:46.034Z,3.63
2023-04-12T01:33:15.363Z,3.05
2023-04-12T01:35:45.039Z,2.70
2023-04-12T01:38:12.994Z,3.13
2023-04-12T01:40:42.821Z,3.17
2023-04-12T01:43:14.025Z,3.10
2023-04-12T01:45:41.954Z,2.63
2023-04-12T01:48:12.358Z,2.92
2023-04-12T01:50:50.981Z,3.05
2023-04-12T01:53:23.905Z,2.67
2023-04-12T01:55:54.512Z,2.97
2023-04-12T01:58:25.235Z,2.47
2023-04-12T02:00:55.862Z,2.60
2023-04-12T02:03:24.802Z,2.90
2023-04-12T02:05:53.477Z,2.78
2023-04-12T02:08:21.324Z,2.95
2023-04-12T02:10:49.126Z,3.10
2023-04-12T02:13:18.165Z,2.80
2023-04-12T02:15:47.395Z,3.15
2023-04-12T02:18:16.986Z,2.92
2023-04-12T02:20:44.988Z,2.70
2023-04-12T02:23:14.114Z,3.10
2023-04-12T02:25:42.214Z,2.92
2023-04-12T02:28:09.943Z,2.70
2023-04-12T02:30:38.361Z,2.42
2023-04-12T02:33:07.901Z,2.47
2023-04-12T02:35:36.325Z,2.72
2023-04-12T02:38:07.923Z,2.45
2023-04-12T02:40:35.976Z,2.40
2023-04-12T02:43:03.701Z,2.90
2023-04-12T02:45:31.414Z,2.65
2023-04-12T02:47:59.772Z,2.30
2023-04-12T02:50:28.892Z,2.50
2023-04-12T02:52:56.624Z,2.50
2023-04-12T02:55:25.759Z,2.55
2023-04-12T02:57:53.755Z,2.95
2023-04-12T03:00:21.821Z,2.58
2023-04-12T03:02:51.647Z,2.55
2023-04-12T03:05:20.129Z,2.08
2023-04-12T03:07:49.728Z,2.47
2023-04-12T03:10:17.548Z,1.88
2023-04-12T03:12:45.300Z,1.95
2023-04-12T03:15:13.552Z,2.22
2023-04-12T03:17:42.969Z,2.10
2023-04-12T03:20:11.962Z,2.38
2023-04-12T03:22:39.717Z,2.05
2023-04-12T03:25:10.031Z,1.92
2023-04-12T03:27:38.372Z,2.05
2023-04-12T03:30:07.450Z,1.95
2023-04-12T03:32:35.674Z,1.90
2023-04-12T03:35:04.608Z,2.30
2023-04-12T03:37:32.646Z,2.22
2023-04-12T03:40:00.988Z,2.20
2023-04-12T03:42:33.691Z,2.30
2023-04-12T03:45:01.852Z,1.73
2023-04-12T03:47:29.938Z,2.00
2023-04-12T03:50:10.888Z,2.03
2023-04-12T03:52:40.050Z,2.13
2023-04-12T03:55:08.438Z,1.95
2023-04-12T03:57:38.510Z,1.95
2023-04-12T04:00:08.446Z,2.00
2023-04-12T04:02:36.841Z,2.13
2023-04-12T04:05:05.577Z,1.98
2023-04-12T04:07:33.542Z,1.98
2023-04-12T04:10:01.422Z,1.90
2023-04-12T04:12:29.185Z,1.70
2023-04-12T04:14:58.319Z,2.20
2023-04-12T04:17:26.093Z,1.92
2023-04-12T04:19:54.521Z,1.80
2023-04-12T04:22:23.021Z,1.83
2023-04-12T04:24:51.700Z,1.90
2023-04-12T04:27:20.491Z,2.00
2023-04-12T04:29:48.338Z,1.60
2023-04-12T04:32:17.462Z,1.77
2023-04-12T04:34:45.220Z,1.90
2023-04-12T04:37:13.322Z,1.75
2023-04-12T04:39:41.049Z,1.70
2023-04-12T04:42:08.740Z,2.30
2023-04-12T04:44:37.277Z,1.88
2023-04-12T04:47:06.918Z,2.05
2023-04-12T04:49:37.060Z,1.67
2023-04-12T04:52:05.265Z,1.75
2023-04-12T04:54:33.185Z,2.00
2023-04-12T04:57:01.677Z,2.30
2023-04-12T04:59:29.896Z,1.70
2023-04-12T05:01:57.747Z,1.70
2023-04-12T05:04:25.686Z,1.80
2023-04-12T05:06:54.923Z,1.80
2023-04-12T05:09:23.015Z,1.92
2023-04-12T05:11:50.757Z,2.00
2023-04-12T05:14:18.452Z,2.40
2023-04-12T05:16:46.307Z,2.95
2023-04-12T05:19:14.037Z,2.95
2023-04-12T05:21:41.808Z,4.68
2023-04-12T05:24:11.645Z,10.43
2023-04-12T05:26:39.415Z,3.90
2023-04-12T05:29:07.141Z,7.65
2023-04-12T05:31:34.885Z,4.20
2023-04-12T05:34:02.544Z,8.18
2023-04-12T05:36:30.593Z,9.00
2023-04-12T05:38:58.484Z,9.88
2023-04-12T05:41:27.744Z,6.70
2023-04-12T05:43:55.462Z,5.32
2023-04-12T05:46:23.181Z,3.90
2023-04-12T05:48:51.308Z,3.25
2023-04-12T05:51:25.225Z,5.03
2023-04-12T05:53:58.586Z,5.80
2023-04-12T05:56:30.437Z,3.30
2023-04-12T05:58:58.416Z,3.65
2023-04-12T06:01:32.350Z,5.35
2023-04-12T06:04:02.396Z,15.57
2023-04-12T06:06:31.471Z,26.70
2023-04-12T06:09:01.042Z,17.13
2023-04-12T06:11:30.888Z,29.83
2023-04-12T06:13:58.759Z,64.38
2023-04-12T06:16:26.508Z,9.80
2023-04-12T06:18:54.303Z,22.50
2023-04-12T06:21:22.562Z,12.27
2023-04-12T06:23:50.250Z,6.90
2023-04-12T06:26:18.681Z,15.90
2023-04-12T06:28:48.217Z,13.18
2023-04-12T06:31:17.566Z,7.85
2023-04-12T06:33:45.397Z,8.00
2023-04-12T06:36:14.695Z,5.15
2023-04-12T06:38:43.181Z,14.63
2023-04-12T06:41:11.694Z,4.68
2023-04-12T06:43:39.445Z,3.42
2023-04-12T06:46:09.105Z,4.38
2023-04-12T06:48:36.889Z,3.28
2023-04-12T06:51:04.802Z,7.60
2023-04-12T06:53:34.953Z,9.48
2023-04-12T06:56:05.241Z,4.85
2023-04-12T06:58:33.042Z,3.40
2023-04-12T07:01:06.354Z,3.20
2023-04-12T07:03:35.980Z,6.82
2023-04-12T07:06:13.794Z,4.53
2023-04-12T07:08:53.009Z,3.88
2023-04-12T07:11:22.548Z,3.88
2023-04-12T07:13:51.089Z,5.85
2023-04-12T07:16:19.301Z,4.30
2023-04-12T07:18:49.255Z,3.50
2023-04-12T07:21:17.980Z,2.80
2023-04-12T07:23:46.944Z,2.53
2023-04-12T07:26:14.645Z,3.00
2023-04-12T07:28:42.536Z,2.55
2023-04-12T07:31:10.442Z,2.42
2023-04-12T07:33:41.334Z,2.70
2023-04-12T07:36:12.934Z,2.50
2023-04-12T07:38:40.703Z,2.90
2023-04-12T07:41:08.698Z,2.75
2023-04-12T07:43:36.554Z,5.78
2023-04-12T07:46:08.559Z,4.80
2023-04-12T07:48:36.790Z,8.13
2023-04-12T07:51:05.168Z,4.90
2023-04-12T07:53:34.341Z,2.70
2023-04-12T07:56:04.920Z,2.55
2023-04-12T07:58:34.275Z,3.60
2023-04-12T08:01:01.985Z,2.63
2023-04-12T08:03:30.019Z,2.50
2023-04-12T08:05:58.149Z,2.58
2023-04-12T08:08:26.169Z,3.40
2023-04-12T08:10:55.273Z,3.25
2023-04-12T08:13:23.756Z,4.40
2023-04-12T08:15:51.502Z,2.88
2023-04-12T08:18:19.465Z,2.85
2023-04-12T08:20:49.214Z,2.90
2023-04-12T08:23:17.441Z,2.22
2023-04-12T08:25:45.136Z,3.38
2023-04-12T08:28:14.254Z,3.08
2023-04-12T08:30:43.657Z,2.70
2023-04-12T08:33:11.587Z,2.83
2023-04-12T08:35:39.905Z,2.70
2023-04-12T08:38:07.985Z,2.53
2023-04-12T08:40:36.669Z,2.80
2023-04-12T08:43:08.656Z,2.97
2023-04-12T08:45:38.667Z,3.45
2023-04-12T08:48:06.961Z,3.72
2023-04-12T08:50:34.902Z,3.30
2023-04-12T08:53:02.669Z,3.80
2023-04-12T08:55:30.504Z,4.10
2023-04-12T08:57:59.421Z,4.53
2023-04-12T09:00:28.466Z,4.10
2023-04-12T09:02:58.301Z,4.75
2023-04-12T09:05:31.353Z,4.50
2023-04-12T09:07:59.830Z,5.68
2023-04-12T09:10:35.222Z,6.78
2023-04-12T09:13:03.683Z,6.22
2023-04-12T09:15:31.978Z,5.32
2023-04-12T09:18:09.418Z,5.95
2023-04-12T09:20:38.241Z,9.50
2023-04-12T09:23:19.099Z,12.13
2023-04-12T09:25:48.405Z,16.73
2023-04-12T09:28:24.302Z,13.90
2023-04-12T09:30:53.398Z,15.05
2023-04-12T09:33:24.766Z,14.55
2023-04-12T09:36:02.083Z,12.73
2023-04-12T09:38:30.064Z,15.40
2023-04-12T09:40:57.963Z,11.68
2023-04-12T09:43:40.514Z,9.45
2023-04-12T09:46:12.743Z,10.40
2023-04-12T09:48:43.471Z,9.82
2023-04-12T09:51:11.965Z,7.75
2023-04-12T09:53:42.908Z,8.02
2023-04-12T09:56:12.879Z,7.13
2023-04-12T09:58:41.499Z,6.57
2023-04-12T10:01:14.660Z,8.00
2023-04-12T10:03:45.398Z,8.05
2023-04-12T10:06:14.491Z,4.00
2023-04-12T10:08:43.144Z,6.13
2023-04-12T10:11:11.614Z,3.75
2023-04-12T10:13:40.686Z,2.80
2023-04-12T10:16:11.146Z,2.13
2023-04-12T10:18:39.927Z,2.10
2023-04-12T10:21:09.794Z,1.60
2023-04-12T10:23:38.459Z,1.90
2023-04-12T10:26:06.929Z,1.70
2023-04-12T10:28:34.875Z,1.40
2023-04-12T10:31:29.685Z,1.90
2023-04-12T10:33:57.689Z,1.73
2023-04-12T10:36:54.495Z,1.80
2023-04-12T10:39:38.258Z,2.08
2023-04-12T10:42:23.898Z,1.92
2023-04-12T10:44:53.049Z,1.80
2023-04-12T10:48:01.466Z,2.20
2023-04-12T10:50:30.751Z,1.70
2023-04-12T10:53:25.195Z,1.83
2023-04-12T10:55:53.548Z,2.30
2023-04-12T10:58:56.264Z,1.85
2023-04-12T11:01:24.235Z,2.25
2023-04-12T11:04:12.537Z,2.03
2023-04-12T11:07:01.621Z,2.30
2023-04-12T11:09:39.532Z,2.10
2023-04-12T11:12:15.162Z,2.70
2023-04-12T11:14:47.721Z,2.67
2023-04-12T11:17:26.089Z,2.20
2023-04-12T11:20:01.443Z,2.40
2023-04-12T11:22:31.199Z,2.55
2023-04-12T11:25:02.261Z,2.30
2023-04-12T11:27:31.784Z,2.47
2023-04-12T11:30:01.625Z,2.50
2023-04-12T11:32:31.450Z,2.92
2023-04-12T11:35:00.235Z,2.58
2023-04-12T11:37:28.638Z,2.00
2023-04-12T11:39:59.944Z,2.17
2023-04-12T11:42:30.231Z,2.22
2023-04-12T11:45:03.993Z,1.95
2023-04-12T11:47:34.848Z,2.42
2023-04-12T11:50:02.669Z,2.40
2023-04-12T11:52:31.814Z,2.38
2023-04-12T11:55:02.435Z,2.30
2023-04-12T11:57:31.690Z,2.60
2023-04-12T12:00:00.831Z,3.00
2023-04-12T12:02:34.453Z,2.70
2023-04-12T12:05:06.965Z,2.92
2023-04-12T12:07:35.825Z,2.72
2023-04-12T12:10:03.810Z,3.40
2023-04-12T12:12:36.085Z,3.00
2023-04-12T12:15:03.849Z,3.88
2023-04-12T12:17:31.750Z,3.80
2023-04-12T12:20:01.543Z,2.50
2023-04-12T12:22:29.830Z,2.95
2023-04-12T12:24:59.629Z,2.45
2023-04-12T12:27:38.403Z,2.45
2023-04-12T12:30:09.710Z,2.20
2023-04-12T12:32:39.125Z,2.50
2023-04-12T12:35:10.647Z,2.60
2023-04-12T12:37:38.616Z,34.97
2023-04-12T12:40:11.482Z,3.00
2023-04-12T12:42:48.543Z,2.60
2023-04-12T12:45:17.598Z,3.15
2023-04-12T12:47:54.067Z,2.85
2023-04-12T12:50:25.071Z,6.43
2023-04-12T12:52:54.193Z,2.85
2023-04-12T12:55:23.511Z,2.92
2023-04-12T12:58:07.371Z,3.08
2023-04-12T13:00:36.756Z,7.75
2023-04-12T13:03:05.217Z,9.82
2023-04-12T13:05:35.881Z,3.38
2023-04-12T13:08:03.717Z,3.53
2023-04-12T13:10:31.438Z,3.53
2023-04-12T13:13:01.694Z,3.55
2023-04-12T13:15:29.507Z,3.47
2023-04-12T13:17:57.445Z,2.97
2023-04-12T13:20:25.681Z,2.45
2023-04-12T13:22:53.451Z,3.55
2023-04-12T13:25:22.320Z,3.25
2023-04-12T13:27:50.768Z,3.33
2023-04-12T13:30:20.694Z,4.28
2023-04-12T13:32:48.538Z,4.70
2023-04-12T13:35:16.345Z,5.07
2023-04-12T13:37:44.209Z,5.82
2023-04-12T13:40:15.455Z,6.60
2023-04-12T13:42:43.578Z,6.10
2023-04-12T13:45:12.514Z,6.18
2023-04-12T13:47:42.124Z,4.55
2023-04-12T13:50:11.042Z,4.03
2023-04-12T13:52:39.100Z,4.90
2023-04-12T13:55:09.229Z,5.22
2023-04-12T13:57:39.725Z,4.95
2023-04-12T14:00:09.568Z,4.93
2023-04-12T14:02:37.555Z,4.70
2023-04-12T14:05:08.449Z,4.57
2023-04-12T14:07:36.825Z,3.55
2023-04-12T14:10:05.081Z,3.42
2023-04-12T14:12:32.932Z,4.10
2023-04-12T14:15:00.685Z,4.63
2023-04-12T14:17:32.463Z,4.43
2023-04-12T14:20:00.822Z,3.78
2023-04-12T14:22:30.239Z,4.28
2023-04-12T14:24:58.181Z,4.88
2023-04-12T14:27:26.286Z,4.53
2023-04-12T14:29:54.175Z,4.40
2023-04-12T14:32:22.644Z,3.97
2023-04-12T14:34:50.501Z,4.07
2023-04-12T14:37:19.283Z,3.88
2023-04-12T14:39:51.150Z,4.18
2023-04-12T14:45:24.014Z,3.75
2023-04-12T14:47:51.962Z,4.88
2023-04-12T14:50:19.908Z,4.22
2023-04-12T14:52:47.673Z,5.20
2023-04-12T14:55:17.917Z,4.03
2023-04-12T14:57:45.660Z,4.60
2023-04-12T15:00:15.498Z,5.13
2023-04-12T15:02:44.474Z,4.00
2023-04-12T15:05:12.484Z,4.78
2023-04-12T15:07:41.403Z,3.67
2023-04-12T15:10:11.219Z,3.40
2023-04-12T15:12:40.499Z,4.85
2023-04-12T15:15:09.596Z,3.13
2023-04-12T15:17:37.717Z,2.17
2023-04-12T15:20:09.643Z,1.73
2023-04-12T15:22:39.122Z,1.50
2023-04-12T15:25:10.657Z,1.20
2023-04-12T15:27:40.791Z,1.20
2023-04-12T15:30:17.657Z,1.30
2023-04-12T15:32:47.057Z,1.10
2023-04-12T15:35:25.804Z,1.30
2023-04-12T15:37:55.160Z,0.98
2023-04-12T15:40:24.325Z,1.27
2023-04-12T15:42:53.666Z,1.05
2023-04-12T15:45:22.079Z,1.20
2023-04-12T15:47:50.169Z,1.30
2023-04-12T15:50:19.112Z,1.30
2023-04-12T15:52:47.266Z,1.15
2023-04-12T15:55:20.194Z,1.25
2023-04-12T15:57:48.574Z,1.63
2023-04-12T16:00:26.043Z,1.33
2023-04-12T16:02:56.419Z,1.17
2023-04-12T16:05:26.569Z,1.02
2023-04-12T16:07:56.865Z,1.13
2023-04-12T16:10:24.809Z,1.20
2023-04-12T16:12:54.433Z,1.15
2023-04-12T16:15:24.074Z,1.60
2023-04-12T16:17:54.410Z,1.50
2023-04-12T16:20:23.156Z,1.52
2023-04-12T16:22:54.278Z,1.33
2023-04-12T16:25:23.327Z,1.50
2023-04-12T16:27:51.092Z,1.42
2023-04-12T16:30:19.105Z,1.52
2023-04-12T16:32:48.932Z,2.20
2023-04-12T16:35:17.097Z,2.00
2023-04-12T16:37:45.201Z,1.55
2023-04-12T16:40:14.724Z,1.60
2023-04-12T16:42:42.758Z,2.22
2023-04-12T16:45:13.912Z,1.40
2023-04-12T16:47:42.069Z,1.60
2023-04-12T16:50:13.553Z,1.60
2023-04-12T16:52:41.939Z,1.70
2023-04-12T16:55:12.302Z,1.10
2023-04-12T16:57:42.853Z,2.10
2023-04-12T17:00:19.546Z,7.70
2023-04-12T17:02:49.804Z,1.85
2023-04-12T17:05:20.079Z,2.60
2023-04-12T17:07:49.986Z,1.33
2023-04-12T17:10:18.746Z,1.13
2023-04-12T17:12:46.825Z,1.63
2023-04-12T17:15:17.343Z,1.60
2023-04-12T17:17:45.392Z,2.33
2023-04-12T17:20:14.198Z,1.17
2023-04-12T17:22:43.494Z,1.13
2023-04-12T17:25:11.857Z,1.60
2023-04-12T17:27:41.053Z,1.50
2023-04-12T17:30:12.341Z,1.50
2023-04-12T17:32:41.248Z,2.72
2023-04-12T17:35:13.580Z,3.13
2023-04-12T17:37:43.037Z,10.32
2023-04-12T17:40:11.813Z,9.48
2023-04-12T17:42:40.178Z,5.20
2023-04-12T17:45:11.093Z,7.70
2023-04-12T17:47:39.020Z,5.68
2023-04-12T17:50:08.545Z,7.22
2023-04-12T17:52:36.985Z,15.73
2023-04-12T17:55:07.528Z,20.50
2023-04-12T17:57:35.595Z,18.83
2023-04-12T18:00:04.081Z,21.30
2023-04-12T18:02:32.148Z,20.45
2023-04-12T18:05:00.225Z,19.83
2023-04-12T18:07:28.224Z,18.73
2023-04-12T18:09:58.606Z,37.33
2023-04-12T18:12:28.084Z,26.85
2023-04-12T18:14:55.869Z,30.48
2023-04-12T18:17:26.404Z,18.45
2023-04-12T18:19:54.861Z,17.73
2023-04-12T18:22:22.630Z,8.40
2023-04-12T18:24:50.653Z,14.32
2023-04-12T18:27:18.418Z,11.43
2023-04-12T18:29:47.577Z,8.60
2023-04-12T18:32:15.496Z,7.82
2023-04-12T18:34:46.522Z,7.85
2023-04-12T18:37:14.266Z,5.35
2023-04-12T18:39:43.062Z,5.30
2023-04-12T18:42:10.874Z,6.05
2023-04-12T18:44:40.549Z,6.15
2023-04-12T18:47:10.104Z,4.32
2023-04-12T18:49:40.312Z,6.25
2023-04-12T18:52:08.143Z,5.97
2023-04-12T18:54:36.149Z,6.90
2023-04-12T18:57:04.076Z,7.57
2023-04-12T18:59:32.062Z,7.25
2023-04-12T19:01:59.943Z,6.55
2023-04-12T19:04:29.338Z,7.00
2023-04-12T19:06:57.697Z,8.05
2023-04-12T19:09:25.434Z,8.35
2023-04-12T19:11:55.506Z,8.35
2023-04-12T19:14:23.335Z,6.35
2023-04-12T19:16:51.580Z,5.13
2023-04-12T19:19:19.336Z,4.50
2023-04-12T19:21:48.437Z,4.50
2023-04-12T19:24:16.165Z,4.28
2023-04-12T19:26:47.134Z,4.28
2023-04-12T19:29:16.177Z,3.65
2023-04-12T19:31:45.870Z,3.25
2023-04-12T19:34:16.287Z,3.22
2023-04-12T19:36:45.389Z,3.00
2023-04-12T19:39:15.581Z,3.08
2023-04-12T19:41:43.352Z,4.10
2023-04-12T19:44:11.030Z,3.90
2023-04-12T19:46:38.963Z,4.47
2023-04-12T19:49:07.013Z,3.85
2023-04-12T19:51:34.831Z,3.70
2023-04-12T19:54:02.822Z,4.40
2023-04-12T19:56:32.262Z,3.92
2023-04-12T19:59:00.496Z,4.00
2023-04-12T20:01:28.453Z,3.78
2023-04-12T20:03:56.249Z,3.67
2023-04-12T20:06:26.870Z,3.63
2023-04-12T20:08:54.597Z,3.40
2023-04-12T20:11:22.622Z,3.15
2023-04-12T20:13:52.247Z,3.30
2023-04-12T20:16:20.269Z,3.10
2023-04-12T20:18:48.113Z,2.70
2023-04-12T20:21:15.969Z,2.67
2023-04-12T20:23:43.826Z,3.33
2023-04-12T20:26:11.648Z,4.95
2023-04-12T20:28:39.435Z,5.10
2023-04-12T20:31:08.812Z,4.63
2023-04-12T20:33:36.807Z,3.10
2023-04-12T20:36:07.047Z,2.90
2023-04-12T20:38:35.937Z,3.10
2023-04-12T20:41:04.189Z,2.80
2023-04-12T20:43:34.819Z,2.10
2023-04-12T20:46:05.201Z,2.20
2023-04-12T20:48:34.964Z,2.00
2023-04-12T20:51:03.476Z,2.30
2023-04-12T20:53:31.392Z,2.10
2023-04-12T20:55:59.365Z,1.67
2023-04-12T20:58:34.457Z,1.98
2023-04-12T21:01:05.289Z,2.15
2023-04-12T21:03:35.913Z,2.70
2023-04-12T21:06:04.036Z,3.63
2023-04-12T21:08:33.854Z,3.00
2023-04-12T21:11:02.127Z,2.50
2023-04-12T21:13:31.386Z,1.98
2023-04-12T21:16:00.685Z,1.65
2023-04-12T21:18:28.444Z,1.40
2023-04-12T21:21:00.929Z,1.60
2023-04-12T21:25:56.999Z,1.40
2023-04-12T21:28:24.771Z,1.65
2023-04-12T21:30:55.185Z,5.10
2023-04-12T21:33:24.736Z,6.75
2023-04-12T21:35:54.456Z,1.38
2023-04-12T21:38:24.348Z,1.30
2023-04-12T21:40:57.347Z,1.20
2023-04-12T21:43:25.570Z,1.42
2023-04-12T21:45:54.550Z,1.30
2023-04-12T21:48:22.644Z,1.20
2023-04-12T21:50:50.610Z,1.58
2023-04-12T21:53:18.371Z,1.40
2023-04-12T21:55:49.576Z,1.48
2023-04-12T21:58:18.057Z,1.80
2023-04-12T22:00:45.955Z,1.40
2023-04-12T22:03:14.408Z,1.48
2023-04-12T22:05:44.558Z,1.58
2023-04-12T22:08:14.158Z,1.90
2023-04-12T22:10:42.502Z,1.70
2023-04-12T22:13:11.698Z,2.20
2023-04-12T22:15:40.549Z,2.03
2023-04-12T22:18:08.273Z,1.67
2023-04-12T22:20:36.248Z,2.00
2023-04-12T22:23:04.020Z,1.90
2023-04-12T22:25:31.876Z,2.38
2023-04-12T22:27:59.582Z,2.20
2023-04-12T22:30:30.653Z,1.98
2023-04-12T22:33:00.009Z,2.40
2023-04-12T22:35:30.034Z,2.10
2023-04-12T22:37:58.561Z,2.00
2023-04-12T22:40:26.358Z,2.00
2023-04-12T22:42:54.092Z,2.00
2023-04-12T22:45:21.865Z,2.13
2023-04-12T22:47:51.122Z,1.90
2023-04-12T22:50:19.659Z,1.60
2023-04-12T22:52:49.885Z,1.85
2023-04-12T22:55:18.317Z,1.83
2023-04-12T22:57:47.006Z,1.58
2023-04-12T23:00:18.043Z,1.55
2023-04-12T23:02:47.789Z,1.50
2023-04-12T23:05:17.472Z,1.58
2023-04-12T23:07:45.365Z,1.30
2023-04-12T23:10:13.267Z,1.45
2023-04-12T23:12:41.284Z,1.20
2023-04-12T23:15:10.304Z,1.20
2023-04-12T23:17:38.383Z,1.20
2023-04-12T23:20:12.129Z,1.20
2023-04-12T23:22:57.545Z,1.25
2023-04-12T23:25:29.154Z,1.50
2023-04-12T23:27:57.397Z,1.65
2023-04-12T23:30:26.781Z,2.00
2023-04-12T23:32:54.651Z,2.00
2023-04-12T23:35:22.446Z,2.13
2023-04-12T23:37:53.420Z,2.08
2023-04-12T23:40:21.218Z,2.30
2023-04-12T23:42:50.871Z,2.50
2023-04-12T23:45:18.860Z,2.30
2023-04-12T23:47:46.799Z,2.22
2023-04-12T23:50:14.603Z,1.77
2023-04-12T23:52:42.413Z,1.63
2023-04-12T23:55:11.979Z,1.65
2023-04-12T23:57:39.898Z,1.58
